createdAt,value
2023-05-12T00:02:32.620Z,26.20
2023-05-12T00:05:03.993Z,26.10
2023-05-12T00:07:37.194Z,26.00
2023-05-12T00:10:08.980Z,25.60
2023-05-12T00:12:40.474Z,25.60
2023-05-12T00:15:12.554Z,25.80
2023-05-12T00:17:47.334Z,25.80
2023-05-12T00:20:19.669Z,25.80
2023-05-12T00:22:50.921Z,25.70
2023-05-12T00:25:22.492Z,25.60
2023-05-12T00:27:53.912Z,25.70
2023-05-12T00:30:25.417Z,25.70
2023-05-12T00:32:59.835Z,25.80
2023-05-12T00:35:31.030Z,25.80
2023-05-12T00:38:01.951Z,25.60
2023-05-12T00:40:33.239Z,25.50
2023-05-12T00:43:05.247Z,25.40
2023-05-12T00:45:36.861Z,25.20
2023-05-12T00:48:11.627Z,25.10
2023-05-12T00:50:46.014Z,25.20
2023-05-12T00:53:17.737Z,25.20
2023-05-12T00:55:49.341Z,25.00
2023-05-12T00:58:21.274Z,25.10
2023-05-12T01:00:52.719Z,25.10
2023-05-12T01:03:27.290Z,25.20
2023-05-12T01:06:05.330Z,25.40
2023-05-12T01:08:38.689Z,25.70
2023-05-12T01:11:11.502Z,26.10
2023-05-12T01:13:43.631Z,26.30
2023-05-12T01:16:19.351Z,26.70
2023-05-12T01:18:59.965Z,26.90
2023-05-12T01:21:31.753Z,27.20
2023-05-12T01:24:08.072Z,27.00
2023-05-12T01:26:42.650Z,27.20
2023-05-12T01:29:15.742Z,27.30
2023-05-12T01:31:48.455Z,27.40
2023-05-12T01:34:21.059Z,27.10
2023-05-12T01:36:52.951Z,27.00
2023-05-12T01:39:25.192Z,26.40
2023-05-12T01:41:58.451Z,25.80
2023-05-12T01:44:30.042Z,25.30
2023-05-12T01:47:02.411Z,25.10
2023-05-12T01:49:33.891Z,24.70
2023-05-12T01:52:07.543Z,24.40
2023-05-12T01:54:39.510Z,24.10
2023-05-12T01:57:13.120Z,23.60
2023-05-12T01:59:45.758Z,23.30
2023-05-12T02:02:17.588Z,23.10
2023-05-12T02:04:48.976Z,23.00
2023-05-12T02:07:21.101Z,22.70
2023-05-12T02:09:52.570Z,22.50
2023-05-12T02:12:26.241Z,22.40
2023-05-12T02:14:58.156Z,22.20
2023-05-12T02:17:29.905Z,22.10
2023-05-12T02:20:02.110Z,22.00
2023-05-12T02:22:33.569Z,21.90
2023-05-12T02:25:04.681Z,21.80
2023-05-12T02:27:37.729Z,21.70
2023-05-12T02:30:10.575Z,21.60
2023-05-12T02:32:42.260Z,21.60
2023-05-12T02:35:14.518Z,21.50
2023-05-12T02:37:46.397Z,21.40
2023-05-12T02:40:18.408Z,21.30
2023-05-12T02:42:51.999Z,21.20
2023-05-12T02:45:23.989Z,21.10
2023-05-12T02:47:55.079Z,21.00
2023-05-12T02:50:26.467Z,20.90
2023-05-12T02:52:58.282Z,20.80
2023-05-12T02:55:31.438Z,20.70
2023-05-12T02:58:06.860Z,20.60
2023-05-12T03:00:38.166Z,20.50
2023-05-12T03:03:09.934Z,20.40
2023-05-12T03:05:42.108Z,20.30
2023-05-12T03:08:14.662Z,20.30
2023-05-12T03:10:46.774Z,20.20
2023-05-12T03:13:25.573Z,20.10
2023-05-12T03:16:02.204Z,20.00
2023-05-12T03:18:33.633Z,19.90
2023-05-12T03:21:05.796Z,19.80
2023-05-12T03:23:37.916Z,19.70
2023-05-12T03:26:09.626Z,19.60
2023-05-12T03:28:43.537Z,19.50
2023-05-12T03:31:15.124Z,19.40
2023-05-12T03:33:46.628Z,19.20
2023-05-12T03:36:19.888Z,19.10
2023-05-12T03:38:52.096Z,19.00
2023-05-12T03:41:23.909Z,18.80
2023-05-12T03:43:57.064Z,18.70
2023-05-12T03:46:28.770Z,18.60
2023-05-12T03:49:00.256Z,18.50
2023-05-12T03:51:31.818Z,18.50
2023-05-12T03:54:03.308Z,18.40
2023-05-12T03:56:34.282Z,18.30
2023-05-12T03:59:08.078Z,18.20
2023-05-12T04:01:39.158Z,18.10
2023-05-12T04:04:10.783Z,18.10
2023-05-12T04:06:42.419Z,17.90
2023-05-12T04:09:14.204Z,17.80
2023-05-12T04:11:46.354Z,17.70
2023-05-12T04:14:26.512Z,17.60
2023-05-12T04:17:03.589Z,17.50
2023-05-12T04:19:34.664Z,17.50
2023-05-12T04:22:06.072Z,17.40
2023-05-12T04:24:39.772Z,17.40
2023-05-12T04:27:11.648Z,17.30
2023-05-12T04:29:45.446Z,17.20
2023-05-12T04:32:16.970Z,17.10
2023-05-12T04:34:49.175Z,17.10
2023-05-12T04:37:20.238Z,17.00
2023-05-12T04:39:51.737Z,17.00
2023-05-12T04:42:22.824Z,17.00
2023-05-12T04:44:56.468Z,16.90
2023-05-12T04:47:30.369Z,16.90
2023-05-12T04:50:02.150Z,16.80
2023-05-12T04:52:33.822Z,16.80
2023-05-12T04:55:04.998Z,16.70
2023-05-12T04:57:36.524Z,16.70
2023-05-12T05:00:11.146Z,16.60
2023-05-12T05:02:42.834Z,16.50
2023-05-12T05:05:14.346Z,16.40
2023-05-12T05:07:45.605Z,16.30
2023-05-12T05:10:16.887Z,16.20
2023-05-12T05:12:48.765Z,16.00
2023-05-12T05:15:24.462Z,15.90
2023-05-12T05:17:56.691Z,15.80
2023-05-12T05:20:32.414Z,15.70
2023-05-12T05:23:04.804Z,15.60
2023-05-12T05:25:36.817Z,15.50
2023-05-12T05:28:08.186Z,15.40
2023-05-12T05:30:43.473Z,15.30
2023-05-12T05:33:14.907Z,15.30
2023-05-12T05:35:46.654Z,15.20
2023-05-12T05:38:18.199Z,15.20
2023-05-12T05:40:53.785Z,15.20
2023-05-12T05:43:25.688Z,15.10
2023-05-12T05:45:59.363Z,15.10
2023-05-12T05:48:30.710Z,15.10
2023-05-12T05:51:01.802Z,15.10
2023-05-12T05:53:32.857Z,15.00
2023-05-12T05:56:04.346Z,15.00
2023-05-12T05:58:35.602Z,15.00
2023-05-12T06:01:09.350Z,15.00
2023-05-12T06:03:40.408Z,15.00
2023-05-12T06:06:12.316Z,14.90
2023-05-12T06:08:43.356Z,15.00
2023-05-12T06:11:15.897Z,14.90
2023-05-12T06:13:49.084Z,14.80
2023-05-12T06:16:24.958Z,14.80
2023-05-12T06:18:56.549Z,14.70
2023-05-12T06:21:27.807Z,14.60
2023-05-12T06:23:59.142Z,14.60
2023-05-12T06:26:30.174Z,14.50
2023-05-12T06:29:01.527Z,14.50
2023-05-12T06:31:34.579Z,14.50
2023-05-12T06:34:06.245Z,14.40
2023-05-12T06:36:37.492Z,14.40
2023-05-12T06:39:09.029Z,14.40
2023-05-12T06:41:40.702Z,14.30
2023-05-12T06:44:13.798Z,14.30
2023-05-12T06:46:47.107Z,14.30
2023-05-12T06:49:18.736Z,14.20
2023-05-12T06:51:50.225Z,14.20
2023-05-12T06:54:21.684Z,14.10
2023-05-12T06:56:53.681Z,14.10
2023-05-12T06:59:25.183Z,14.10
2023-05-12T07:02:00.593Z,14.00
2023-05-12T07:04:32.100Z,13.90
2023-05-12T07:07:03.544Z,13.80
2023-05-12T07:09:34.606Z,13.80
2023-05-12T07:12:06.251Z,13.70
2023-05-12T07:14:37.588Z,13.60
2023-05-12T07:17:11.196Z,13.60
2023-05-12T07:19:44.595Z,13.50
2023-05-12T07:22:16.908Z,13.50
2023-05-12T07:24:48.609Z,13.50
2023-05-12T07:27:20.822Z,13.50
2023-05-12T07:29:51.703Z,13.50
2023-05-12T07:32:25.670Z,13.40
2023-05-12T07:34:56.781Z,13.40
2023-05-12T07:37:28.206Z,13.30
2023-05-12T07:39:59.269Z,13.30
2023-05-12T07:42:30.937Z,13.30
2023-05-12T07:45:02.350Z,13.40
2023-05-12T07:47:36.149Z,13.40
2023-05-12T07:50:08.261Z,13.30
2023-05-12T07:52:39.992Z,13.30
2023-05-12T07:55:11.595Z,13.30
2023-05-12T07:57:43.979Z,13.30
2023-05-12T08:00:17.327Z,13.20
2023-05-12T08:02:51.672Z,13.10
2023-05-12T08:05:23.978Z,13.10
2023-05-12T08:07:58.492Z,13.00
2023-05-12T08:10:31.137Z,12.90
2023-05-12T08:13:03.514Z,13.00
2023-05-12T08:15:35.457Z,12.90
2023-05-12T08:18:09.413Z,12.90
2023-05-12T08:20:42.157Z,12.80
2023-05-12T08:23:14.648Z,12.70
2023-05-12T08:25:46.190Z,12.70
2023-05-12T08:28:17.804Z,12.60
2023-05-12T08:30:49.467Z,12.60
2023-05-12T08:33:22.490Z,12.50
2023-05-12T08:35:54.010Z,12.50
2023-05-12T08:38:25.502Z,12.40
2023-05-12T08:41:08.677Z,12.40
2023-05-12T08:43:45.338Z,12.40
2023-05-12T08:46:17.275Z,12.40
2023-05-12T08:48:51.907Z,12.30
2023-05-12T08:51:24.191Z,12.30
2023-05-12T08:53:58.971Z,12.30
2023-05-12T08:59:08.522Z,12.20
2023-05-12T09:01:43.935Z,12.30
2023-05-12T09:04:17.575Z,12.20
2023-05-12T09:06:50.560Z,12.20
2023-05-12T09:09:23.150Z,12.20
2023-05-12T09:11:59.967Z,12.10
2023-05-12T09:14:35.793Z,12.10
2023-05-12T09:17:10.099Z,12.00
2023-05-12T09:19:43.783Z,12.00
2023-05-12T09:22:18.463Z,12.00
2023-05-12T09:24:49.839Z,11.90
2023-05-12T09:27:28.984Z,11.80
2023-05-12T09:30:00.169Z,11.80
2023-05-12T09:32:35.800Z,11.70
2023-05-12T09:35:12.483Z,11.70
2023-05-12T09:37:44.050Z,11.70
2023-05-12T09:40:18.224Z,11.70
2023-05-12T09:42:50.795Z,11.70
2023-05-12T09:45:23.925Z,11.60
2023-05-12T09:47:55.234Z,11.60
2023-05-12T09:50:32.485Z,11.50
2023-05-12T09:53:10.987Z,11.50
2023-05-12T09:55:43.367Z,11.50
2023-05-12T09:58:15.483Z,11.50
2023-05-12T10:03:25.299Z,11.40
2023-05-12T10:06:05.654Z,11.40
2023-05-12T10:08:42.314Z,11.40
2023-05-12T10:11:14.110Z,11.40
2023-05-12T10:13:46.849Z,11.40
2023-05-12T10:16:19.759Z,11.40
2023-05-12T10:18:52.004Z,11.40
2023-05-12T10:21:26.749Z,11.30
2023-05-12T10:23:59.006Z,11.30
2023-05-12T10:26:30.754Z,11.20
2023-05-12T10:29:02.281Z,11.20
2023-05-12T10:31:34.165Z,11.20
2023-05-12T10:34:06.908Z,11.20
2023-05-12T10:36:50.889Z,11.20
2023-05-12T10:39:22.083Z,11.20
2023-05-12T10:42:03.849Z,11.20
2023-05-12T10:44:36.034Z,11.20
2023-05-12T10:47:17.423Z,11.20
2023-05-12T10:49:49.415Z,11.10
2023-05-12T10:52:26.039Z,11.20
2023-05-12T10:55:04.478Z,11.10
2023-05-12T10:57:36.593Z,11.10
2023-05-12T11:00:09.125Z,11.10
2023-05-12T11:02:41.614Z,11.00
2023-05-12T11:05:17.015Z,11.00
2023-05-12T11:07:54.651Z,11.10
2023-05-12T11:10:26.607Z,11.00
2023-05-12T11:12:59.911Z,10.90
2023-05-12T11:15:32.478Z,10.90
2023-05-12T11:18:07.417Z,10.90
2023-05-12T11:20:39.476Z,10.80
2023-05-12T11:23:13.723Z,10.80
2023-05-12T11:25:48.973Z,10.80
2023-05-12T11:28:20.601Z,10.80
2023-05-12T11:30:55.917Z,10.80
2023-05-12T11:33:27.560Z,10.80
2023-05-12T11:35:58.960Z,10.80
2023-05-12T11:38:32.618Z,10.70
2023-05-12T11:41:04.126Z,10.80
2023-05-12T11:43:35.701Z,10.80
2023-05-12T11:46:07.288Z,10.80
2023-05-12T11:48:38.735Z,10.80
2023-05-12T11:51:11.701Z,10.70
2023-05-12T11:53:47.648Z,10.70
2023-05-12T11:56:23.192Z,10.70
2023-05-12T11:58:58.831Z,10.70
2023-05-12T12:01:30.549Z,10.70
2023-05-12T12:04:02.207Z,10.70
2023-05-12T12:06:33.989Z,10.70
2023-05-12T12:09:07.654Z,10.70
2023-05-12T12:11:39.269Z,10.70
2023-05-12T12:14:10.677Z,10.70
2023-05-12T12:16:42.097Z,10.70
2023-05-12T12:19:13.654Z,10.60
2023-05-12T12:21:45.686Z,10.60
2023-05-12T12:24:19.897Z,10.60
2023-05-12T12:26:51.628Z,10.60
2023-05-12T12:29:24.889Z,10.60
2023-05-12T12:31:56.303Z,10.60
2023-05-12T12:34:27.659Z,10.60
2023-05-12T12:36:59.865Z,10.70
2023-05-12T12:39:33.756Z,10.70
2023-05-12T12:42:06.035Z,10.60
2023-05-12T12:44:37.579Z,10.70
2023-05-12T12:47:09.333Z,10.70
2023-05-12T12:49:40.922Z,10.60
2023-05-12T12:52:12.480Z,10.60
2023-05-12T12:54:45.916Z,10.60
2023-05-12T12:57:17.873Z,10.60
2023-05-12T12:59:49.265Z,10.60
2023-05-12T13:02:22.212Z,10.50
2023-05-12T13:04:54.065Z,10.60
2023-05-12T13:07:25.447Z,10.50
2023-05-12T13:09:59.424Z,10.50
2023-05-12T13:12:32.411Z,10.50
2023-05-12T13:15:04.280Z,10.50
2023-05-12T13:17:36.120Z,10.50
2023-05-12T13:20:08.444Z,10.50
2023-05-12T13:22:40.253Z,10.50
2023-05-12T13:25:14.264Z,10.50
2023-05-12T13:27:45.492Z,10.50
2023-05-12T13:30:17.206Z,10.60
2023-05-12T13:32:49.247Z,10.60
2023-05-12T13:35:20.968Z,10.60
2023-05-12T13:37:52.321Z,10.60
2023-05-12T13:40:25.641Z,10.60
2023-05-12T13:42:57.569Z,10.60
2023-05-12T13:45:28.724Z,10.60
2023-05-12T13:48:00.534Z,10.60
2023-05-12T13:50:33.731Z,10.70
2023-05-12T13:53:05.430Z,10.80
2023-05-12T13:55:40.999Z,10.80
2023-05-12T13:58:12.299Z,10.80
2023-05-12T14:00:43.086Z,10.90
2023-05-12T14:03:14.620Z,10.90
2023-05-12T14:05:46.324Z,10.90
2023-05-12T14:08:17.661Z,11.00
2023-05-12T14:10:51.009Z,11.10
2023-05-12T14:13:22.694Z,11.10
2023-05-12T14:15:54.479Z,11.20
2023-05-12T14:18:26.833Z,11.30
2023-05-12T14:20:58.229Z,11.40
2023-05-12T14:23:29.542Z,11.40
2023-05-12T14:26:04.595Z,11.50
2023-05-12T14:28:36.516Z,11.60
2023-05-12T14:31:07.726Z,11.70
2023-05-12T14:33:39.276Z,11.80
2023-05-12T14:36:11.317Z,11.90
2023-05-12T14:38:42.369Z,12.10
2023-05-12T14:41:16.394Z,12.20
2023-05-12T14:43:48.338Z,12.30
2023-05-12T14:46:19.905Z,12.50
2023-05-12T14:48:51.397Z,12.80
2023-05-12T14:51:22.825Z,13.10
2023-05-12T14:53:54.674Z,13.60
2023-05-12T14:56:29.344Z,14.10
2023-05-12T14:59:00.735Z,14.50
2023-05-12T15:01:32.412Z,14.80
2023-05-12T15:04:03.883Z,14.90
2023-05-12T15:06:35.274Z,15.30
2023-05-12T15:09:06.841Z,15.60
2023-05-12T15:11:40.731Z,15.50
2023-05-12T15:14:11.790Z,15.50
2023-05-12T15:16:43.352Z,15.40
2023-05-12T15:19:14.906Z,15.40
2023-05-12T15:21:48.159Z,15.40
2023-05-12T15:24:19.756Z,15.40
2023-05-12T15:26:54.386Z,15.40
2023-05-12T15:29:26.769Z,15.40
2023-05-12T15:31:58.298Z,15.40
2023-05-12T15:34:29.801Z,15.50
2023-05-12T15:37:02.015Z,15.50
2023-05-12T15:39:33.936Z,15.50
2023-05-12T15:42:08.545Z,15.60
2023-05-12T15:44:40.061Z,15.70
2023-05-12T15:47:11.854Z,15.80
2023-05-12T15:49:44.060Z,15.90
2023-05-12T15:52:15.476Z,16.00
2023-05-12T15:54:46.971Z,16.10
2023-05-12T15:57:20.519Z,16.20
2023-05-12T15:59:52.258Z,16.30
2023-05-12T16:02:23.613Z,16.40
2023-05-12T16:04:54.681Z,16.50
2023-05-12T16:07:30.224Z,16.60
2023-05-12T16:10:01.610Z,16.60
2023-05-12T16:12:34.066Z,16.70
2023-05-12T16:15:05.865Z,16.70
2023-05-12T16:17:37.042Z,16.80
2023-05-12T16:20:09.239Z,16.80
2023-05-12T16:22:40.537Z,16.80
2023-05-12T16:25:12.354Z,16.90
2023-05-12T16:27:45.751Z,16.90
2023-05-12T16:30:19.990Z,17.00
2023-05-12T16:32:51.571Z,17.10
2023-05-12T16:35:23.136Z,17.20
2023-05-12T16:37:54.845Z,17.30
2023-05-12T16:40:25.727Z,17.40
2023-05-12T16:42:58.445Z,17.40
2023-05-12T16:45:29.152Z,17.50
2023-05-12T16:48:00.043Z,17.60
2023-05-12T16:50:30.940Z,17.60
2023-05-12T16:53:01.999Z,17.80
2023-05-12T16:55:32.904Z,17.90
2023-05-12T16:58:05.600Z,18.00
2023-05-12T17:00:36.400Z,18.00
2023-05-12T17:03:09.848Z,18.20
2023-05-12T17:05:40.947Z,18.30
2023-05-12T17:08:11.802Z,18.40
2023-05-12T17:10:43.296Z,18.50
2023-05-12T17:13:17.786Z,18.70
2023-05-12T17:15:48.899Z,18.90
2023-05-12T17:18:20.117Z,18.90
2023-05-12T17:20:51.327Z,19.10
2023-05-12T17:23:22.663Z,19.30
2023-05-12T17:25:54.484Z,19.40
2023-05-12T17:28:28.208Z,19.60
2023-05-12T17:31:02.172Z,19.60
2023-05-12T17:33:33.930Z,19.60
2023-05-12T17:36:12.185Z,19.60
2023-05-12T17:38:44.520Z,19.60
2023-05-12T17:41:17.208Z,19.70
2023-05-12T17:43:50.135Z,19.70
2023-05-12T17:46:21.018Z,19.80
2023-05-12T17:48:52.029Z,19.80
2023-05-12T17:51:22.832Z,20.00
2023-05-12T17:53:53.574Z,20.00
2023-05-12T17:56:25.280Z,20.00
2023-05-12T17:58:58.417Z,20.00
2023-05-12T18:01:29.290Z,20.00
2023-05-12T18:04:00.131Z,20.00
2023-05-12T18:06:32.616Z,19.90
2023-05-12T18:09:04.280Z,20.10
2023-05-12T18:11:35.872Z,20.30
2023-05-12T18:14:08.284Z,20.50
2023-05-12T18:16:39.217Z,20.50
2023-05-12T18:19:10.137Z,20.50
2023-05-12T18:21:40.950Z,20.70
2023-05-12T18:24:12.353Z,20.90
2023-05-12T18:26:43.598Z,20.80
2023-05-12T18:29:17.060Z,20.90
2023-05-12T18:31:48.442Z,21.10
2023-05-12T18:34:19.561Z,21.20
2023-05-12T18:36:50.325Z,21.30
2023-05-12T18:39:21.373Z,21.50
2023-05-12T18:41:52.411Z,21.50
2023-05-12T18:44:25.591Z,21.60
2023-05-12T18:46:56.873Z,21.60
2023-05-12T18:49:27.926Z,21.80
2023-05-12T18:51:58.860Z,21.80
2023-05-12T18:54:29.649Z,21.90
2023-05-12T18:57:00.810Z,22.00
2023-05-12T18:59:34.045Z,22.10
2023-05-12T19:02:05.603Z,22.20
2023-05-12T19:04:36.374Z,22.30
2023-05-12T19:07:10.246Z,22.30
2023-05-12T19:09:41.089Z,22.50
2023-05-12T19:12:13.149Z,22.60
2023-05-12T19:14:45.850Z,22.70
2023-05-12T19:17:17.918Z,22.90
2023-05-12T19:19:50.222Z,22.90
2023-05-12T19:22:21.618Z,23.00
2023-05-12T19:24:53.390Z,22.90
2023-05-12T19:27:24.277Z,22.60
2023-05-12T19:29:57.997Z,22.70
2023-05-12T19:32:29.119Z,22.80
2023-05-12T19:35:01.083Z,22.90
2023-05-12T19:37:31.981Z,22.90
2023-05-12T19:40:02.919Z,23.00
2023-05-12T19:42:33.723Z,23.10
2023-05-12T19:45:06.329Z,23.30
2023-05-12T19:47:38.572Z,23.10
2023-05-12T19:50:11.170Z,23.00
2023-05-12T19:52:42.458Z,23.10
2023-05-12T19:55:13.501Z,23.20
2023-05-12T19:57:45.021Z,23.40
2023-05-12T20:00:18.620Z,23.50
2023-05-12T20:02:50.251Z,23.60
2023-05-12T20:05:21.533Z,24.00
2023-05-12T20:07:53.014Z,24.10
2023-05-12T20:10:24.053Z,24.10
2023-05-12T20:12:55.895Z,24.30
2023-05-12T20:15:28.369Z,24.40
2023-05-12T20:17:59.827Z,24.40
2023-05-12T20:20:31.392Z,24.60
2023-05-12T20:23:02.883Z,24.80
2023-05-12T20:25:36.804Z,24.70
2023-05-12T20:28:10.474Z,24.70
2023-05-12T20:30:44.086Z,24.40
2023-05-12T20:33:15.322Z,24.50
2023-05-12T20:35:46.333Z,24.50
2023-05-12T20:38:17.795Z,24.90
2023-05-12T20:40:50.042Z,25.20
2023-05-12T20:43:21.409Z,25.60
2023-05-12T20:45:54.780Z,25.90
2023-05-12T20:48:26.545Z,26.10
2023-05-12T20:50:57.979Z,26.30
2023-05-12T20:53:30.091Z,26.50
2023-05-12T20:56:01.020Z,26.50
2023-05-12T20:58:31.853Z,26.60
2023-05-12T21:01:05.056Z,26.70
2023-05-12T21:03:36.751Z,26.80
2023-05-12T21:06:09.050Z,26.90
2023-05-12T21:08:39.862Z,27.10
2023-05-12T21:11:18.200Z,27.20
2023-05-12T21:13:49.748Z,27.30
2023-05-12T21:16:22.724Z,27.40
2023-05-12T21:18:54.336Z,27.40
2023-05-12T21:21:25.768Z,27.40
2023-05-12T21:23:56.836Z,27.30
2023-05-12T21:26:29.453Z,27.40
2023-05-12T21:29:03.958Z,27.60
2023-05-12T21:31:37.566Z,27.70
2023-05-12T21:34:09.031Z,27.90
2023-05-12T21:36:40.599Z,27.80
2023-05-12T21:39:11.384Z,27.90
2023-05-12T21:41:43.276Z,27.90
2023-05-12T21:44:14.270Z,28.00
2023-05-12T21:46:47.093Z,27.90
2023-05-12T21:49:17.932Z,27.90
2023-05-12T21:51:48.631Z,28.00
2023-05-12T21:54:20.010Z,28.10
2023-05-12T21:56:51.325Z,28.20
2023-05-12T21:59:22.714Z,28.10
2023-05-12T22:01:55.870Z,28.50
2023-05-12T22:04:27.149Z,28.80
2023-05-12T22:06:58.561Z,28.90
2023-05-12T22:09:31.071Z,28.80
2023-05-12T22:12:02.753Z,28.90
2023-05-12T22:14:33.520Z,29.00
2023-05-12T22:17:06.190Z,29.20
2023-05-12T22:19:36.941Z,29.40
2023-05-12T22:22:08.356Z,29.50
2023-05-12T22:24:39.746Z,29.50
2023-05-12T22:27:10.697Z,29.50
2023-05-12T22:29:41.679Z,29.50
2023-05-12T22:32:15.385Z,29.50
2023-05-12T22:34:46.457Z,29.60
2023-05-12T22:37:17.938Z,29.80
2023-05-12T22:39:48.632Z,29.90
2023-05-12T22:42:20.298Z,29.90
2023-05-12T22:44:51.693Z,29.90
2023-05-12T22:47:24.292Z,30.10
2023-05-12T22:49:55.846Z,30.30
2023-05-12T22:52:26.685Z,30.20
2023-05-12T22:54:58.785Z,30.10
2023-05-12T22:57:30.237Z,30.10
2023-05-12T23:00:01.688Z,30.10
2023-05-12T23:02:35.744Z,29.70
2023-05-12T23:05:07.744Z,29.80
2023-05-12T23:07:39.710Z,29.80
2023-05-12T23:10:12.538Z,29.80
2023-05-12T23:12:43.962Z,29.90
2023-05-12T23:15:15.932Z,29.90
2023-05-12T23:17:49.979Z,29.70
2023-05-12T23:20:22.347Z,29.90
2023-05-12T23:22:53.989Z,29.70
2023-05-12T23:25:25.578Z,29.60
2023-05-12T23:27:56.937Z,29.50
2023-05-12T23:30:32.837Z,29.50
2023-05-12T23:33:06.416Z,29.40
2023-05-12T23:35:38.146Z,29.40
2023-05-12T23:38:09.574Z,29.40
2023-05-12T23:40:41.682Z,29.50
2023-05-12T23:43:13.045Z,29.70
2023-05-12T23:45:44.447Z,29.60
2023-05-12T23:48:18.110Z,29.70
2023-05-12T23:50:49.545Z,29.60
2023-05-12T23:53:21.245Z,29.60
2023-05-12T23:55:52.797Z,29.50
2023-05-12T23:58:24.709Z,29.60
